sensor_id;sensor_type;location;lat;lon;timestamp;P1;durP1;ratioP1;P2;durP2;ratioP2
68886;SDS011;55925;51.764;6.402;2023-05-14T00:02:06;13.23;;;7.30;;
68886;SDS011;55925;51.764;6.402;2023-05-14T00:04:32;12.55;;;7.05;;
68886;SDS011;55925;51.764;6.402;2023-05-14T00:06:58;10.30;;;7.38;;
68886;SDS011;55925;51.764;6.402;2023-05-14T00:09:24;12.07;;;7.47;;
68886;SDS011;55925;51.764;6.402;2023-05-14T00:11:50;11.52;;;7.47;;
68886;SDS011;55925;51.764;6.402;2023-05-14T00:14:16;11.63;;;7.30;;
68886;SDS011;55925;51.764;6.402;2023-05-14T00:16:42;13.55;;;7.20;;
68886;SDS011;55925;51.764;6.402;2023-05-14T00:19:08;11.23;;;7.15;;
68886;SDS011;55925;51.764;6.402;2023-05-14T00:21:35;14.35;;;8.10;;
68886;SDS011;55925;51.764;6.402;2023-05-14T00:24:01;13.77;;;7.47;;
68886;SDS011;55925;51.764;6.402;2023-05-14T00:26:27;11.95;;;7.25;;
68886;SDS011;55925;51.764;6.402;2023-05-14T00:28:53;14.27;;;7.68;;
68886;SDS011;55925;51.764;6.402;2023-05-14T00:31:19;12.38;;;7.82;;
68886;SDS011;55925;51.764;6.402;2023-05-14T00:33:45;10.95;;;7.93;;
68886;SDS011;55925;51.764;6.402;2023-05-14T00:36:11;13.30;;;7.63;;
68886;SDS011;55925;51.764;6.402;2023-05-14T00:38:37;12.18;;;7.60;;
68886;SDS011;55925;51.764;6.402;2023-05-14T00:41:03;15.63;;;8.30;;
68886;SDS011;55925;51.764;6.402;2023-05-14T00:43:29;12.10;;;8.35;;
68886;SDS011;55925;51.764;6.402;2023-05-14T00:45:57;14.98;;;9.02;;
68886;SDS011;55925;51.764;6.402;2023-05-14T00:48:23;12.23;;;8.40;;
68886;SDS011;55925;51.764;6.402;2023-05-14T00:50:49;15.05;;;10.05;;
68886;SDS011;55925;51.764;6.402;2023-05-14T00:53:17;14.45;;;8.98;;
68886;SDS011;55925;51.764;6.402;2023-05-14T00:55:43;14.43;;;9.05;;
68886;SDS011;55925;51.764;6.402;2023-05-14T00:58:10;15.75;;;9.25;;
68886;SDS011;55925;51.764;6.402;2023-05-14T01:00:37;13.45;;;9.05;;
68886;SDS011;55925;51.764;6.402;2023-05-14T01:03:03;15.30;;;9.40;;
68886;SDS011;55925;51.764;6.402;2023-05-14T01:05:42;15.38;;;9.52;;
68886;SDS011;55925;51.764;6.402;2023-05-14T01:10:38;18.45;;;10.50;;
68886;SDS011;55925;51.764;6.402;2023-05-14T01:13:08;13.80;;;8.98;;
68886;SDS011;55925;51.764;6.402;2023-05-14T01:15:35;13.77;;;9.27;;
68886;SDS011;55925;51.764;6.402;2023-05-14T01:18:12;15.05;;;9.90;;
68886;SDS011;55925;51.764;6.402;2023-05-14T01:20:38;15.10;;;10.02;;
68886;SDS011;55925;51.764;6.402;2023-05-14T01:23:04;16.58;;;10.55;;
68886;SDS011;55925;51.764;6.402;2023-05-14T01:25:30;16.58;;;10.40;;
68886;SDS011;55925;51.764;6.402;2023-05-14T01:30:52;16.13;;;10.63;;
68886;SDS011;55925;51.764;6.402;2023-05-14T01:33:23;17.98;;;11.27;;
68886;SDS011;55925;51.764;6.402;2023-05-14T01:35:50;19.17;;;11.20;;
68886;SDS011;55925;51.764;6.402;2023-05-14T01:38:17;18.33;;;11.60;;
68886;SDS011;55925;51.764;6.402;2023-05-14T01:40:45;18.45;;;11.60;;
68886;SDS011;55925;51.764;6.402;2023-05-14T01:43:12;17.55;;;11.18;;
68886;SDS011;55925;51.764;6.402;2023-05-14T01:45:38;19.13;;;12.77;;
68886;SDS011;55925;51.764;6.402;2023-05-14T01:48:04;16.98;;;11.40;;
68886;SDS011;55925;51.764;6.402;2023-05-14T01:50:30;17.88;;;11.05;;
68886;SDS011;55925;51.764;6.402;2023-05-14T01:52:56;18.20;;;10.95;;
68886;SDS011;55925;51.764;6.402;2023-05-14T01:55:22;18.08;;;12.02;;
68886;SDS011;55925;51.764;6.402;2023-05-14T01:57:49;19.70;;;12.02;;
68886;SDS011;55925;51.764;6.402;2023-05-14T02:00:15;20.42;;;12.77;;
68886;SDS011;55925;51.764;6.402;2023-05-14T02:02:41;22.17;;;13.40;;
68886;SDS011;55925;51.764;6.402;2023-05-14T02:05:07;27.60;;;13.18;;
68886;SDS011;55925;51.764;6.402;2023-05-14T02:07:34;22.20;;;13.40;;
68886;SDS011;55925;51.764;6.402;2023-05-14T02:10:00;21.20;;;13.75;;
68886;SDS011;55925;51.764;6.402;2023-05-14T02:12:26;23.50;;;13.85;;
68886;SDS011;55925;51.764;6.402;2023-05-14T02:14:52;24.00;;;14.07;;
68886;SDS011;55925;51.764;6.402;2023-05-14T02:17:18;24.20;;;14.40;;
68886;SDS011;55925;51.764;6.402;2023-05-14T02:19:44;21.88;;;13.80;;
68886;SDS011;55925;51.764;6.402;2023-05-14T02:22:10;25.10;;;14.88;;
68886;SDS011;55925;51.764;6.402;2023-05-14T02:24:36;21.60;;;13.45;;
68886;SDS011;55925;51.764;6.402;2023-05-14T02:27:02;24.15;;;14.07;;
68886;SDS011;55925;51.764;6.402;2023-05-14T02:29:29;29.60;;;15.55;;
68886;SDS011;55925;51.764;6.402;2023-05-14T02:31:55;24.70;;;15.13;;
68886;SDS011;55925;51.764;6.402;2023-05-14T02:34:20;25.02;;;14.85;;
68886;SDS011;55925;51.764;6.402;2023-05-14T02:36:46;26.92;;;15.27;;
68886;SDS011;55925;51.764;6.402;2023-05-14T02:39:12;25.58;;;15.95;;
68886;SDS011;55925;51.764;6.402;2023-05-14T02:41:38;26.95;;;15.75;;
68886;SDS011;55925;51.764;6.402;2023-05-14T02:44:04;26.20;;;14.98;;
68886;SDS011;55925;51.764;6.402;2023-05-14T02:46:30;26.17;;;15.48;;
68886;SDS011;55925;51.764;6.402;2023-05-14T02:48:57;25.13;;;15.88;;
68886;SDS011;55925;51.764;6.402;2023-05-14T02:51:23;26.13;;;16.00;;
68886;SDS011;55925;51.764;6.402;2023-05-14T02:53:49;28.25;;;17.00;;
68886;SDS011;55925;51.764;6.402;2023-05-14T02:56:15;28.65;;;15.90;;
68886;SDS011;55925;51.764;6.402;2023-05-14T02:58:41;29.08;;;16.42;;
68886;SDS011;55925;51.764;6.402;2023-05-14T03:01:07;29.10;;;15.57;;
68886;SDS011;55925;51.764;6.402;2023-05-14T03:03:33;28.02;;;16.95;;
68886;SDS011;55925;51.764;6.402;2023-05-14T03:05:59;26.38;;;16.55;;
68886;SDS011;55925;51.764;6.402;2023-05-14T03:08:25;25.58;;;17.00;;
68886;SDS011;55925;51.764;6.402;2023-05-14T03:10:51;25.13;;;15.75;;
68886;SDS011;55925;51.764;6.402;2023-05-14T03:13:17;25.98;;;16.30;;
68886;SDS011;55925;51.764;6.402;2023-05-14T03:15:44;26.20;;;15.77;;
68886;SDS011;55925;51.764;6.402;2023-05-14T03:18:11;29.95;;;16.70;;
68886;SDS011;55925;51.764;6.402;2023-05-14T03:20:37;28.80;;;15.98;;
68886;SDS011;55925;51.764;6.402;2023-05-14T03:23:03;32.55;;;18.90;;
68886;SDS011;55925;51.764;6.402;2023-05-14T03:25:29;28.52;;;17.42;;
68886;SDS011;55925;51.764;6.402;2023-05-14T03:27:55;28.35;;;16.02;;
68886;SDS011;55925;51.764;6.402;2023-05-14T03:30:21;28.33;;;16.75;;
68886;SDS011;55925;51.764;6.402;2023-05-14T03:32:47;29.60;;;17.50;;
68886;SDS011;55925;51.764;6.402;2023-05-14T03:35:13;32.72;;;17.38;;
68886;SDS011;55925;51.764;6.402;2023-05-14T03:37:39;25.90;;;16.25;;
68886;SDS011;55925;51.764;6.402;2023-05-14T03:40:05;25.90;;;15.63;;
68886;SDS011;55925;51.764;6.402;2023-05-14T03:42:31;28.60;;;15.73;;
68886;SDS011;55925;51.764;6.402;2023-05-14T03:44:57;28.08;;;17.60;;
68886;SDS011;55925;51.764;6.402;2023-05-14T03:47:23;28.25;;;17.85;;
68886;SDS011;55925;51.764;6.402;2023-05-14T03:49:49;27.25;;;16.83;;
68886;SDS011;55925;51.764;6.402;2023-05-14T03:52:15;30.48;;;17.60;;
68886;SDS011;55925;51.764;6.402;2023-05-14T03:54:41;29.50;;;16.77;;
68886;SDS011;55925;51.764;6.402;2023-05-14T03:57:07;28.13;;;16.52;;
68886;SDS011;55925;51.764;6.402;2023-05-14T03:59:33;28.38;;;16.67;;
68886;SDS011;55925;51.764;6.402;2023-05-14T04:01:59;27.98;;;17.15;;
68886;SDS011;55925;51.764;6.402;2023-05-14T04:04:25;32.53;;;17.45;;
68886;SDS011;55925;51.764;6.402;2023-05-14T04:06:51;30.45;;;17.45;;
68886;SDS011;55925;51.764;6.402;2023-05-14T04:09:17;28.92;;;17.45;;
68886;SDS011;55925;51.764;6.402;2023-05-14T04:11:43;29.85;;;18.05;;
68886;SDS011;55925;51.764;6.402;2023-05-14T04:14:09;29.58;;;16.50;;
68886;SDS011;55925;51.764;6.402;2023-05-14T04:16:35;31.25;;;17.02;;
68886;SDS011;55925;51.764;6.402;2023-05-14T04:19:01;34.97;;;18.77;;
68886;SDS011;55925;51.764;6.402;2023-05-14T04:21:29;30.73;;;18.00;;
68886;SDS011;55925;51.764;6.402;2023-05-14T04:23:55;30.35;;;17.83;;
68886;SDS011;55925;51.764;6.402;2023-05-14T04:26:21;30.13;;;18.08;;
68886;SDS011;55925;51.764;6.402;2023-05-14T04:28:47;29.83;;;17.42;;
68886;SDS011;55925;51.764;6.402;2023-05-14T04:31:14;32.17;;;16.30;;
68886;SDS011;55925;51.764;6.402;2023-05-14T04:33:40;29.77;;;17.38;;
68886;SDS011;55925;51.764;6.402;2023-05-14T04:36:06;31.25;;;16.55;;
68886;SDS011;55925;51.764;6.402;2023-05-14T04:38:32;29.88;;;18.00;;
68886;SDS011;55925;51.764;6.402;2023-05-14T04:40:58;27.35;;;16.88;;
68886;SDS011;55925;51.764;6.402;2023-05-14T04:43:24;29.17;;;16.42;;
68886;SDS011;55925;51.764;6.402;2023-05-14T04:45:50;28.30;;;17.27;;
68886;SDS011;55925;51.764;6.402;2023-05-14T04:48:16;29.00;;;17.48;;
68886;SDS011;55925;51.764;6.402;2023-05-14T04:50:42;30.30;;;18.02;;
68886;SDS011;55925;51.764;6.402;2023-05-14T04:53:09;32.17;;;17.70;;
68886;SDS011;55925;51.764;6.402;2023-05-14T04:55:35;31.50;;;18.75;;
68886;SDS011;55925;51.764;6.402;2023-05-14T04:58:01;28.33;;;17.10;;
68886;SDS011;55925;51.764;6.402;2023-05-14T05:00:27;29.90;;;16.77;;
68886;SDS011;55925;51.764;6.402;2023-05-14T05:02:53;28.20;;;16.55;;
68886;SDS011;55925;51.764;6.402;2023-05-14T05:05:19;31.05;;;18.00;;
68886;SDS011;55925;51.764;6.402;2023-05-14T05:07:45;29.25;;;17.23;;
68886;SDS011;55925;51.764;6.402;2023-05-14T05:10:11;32.10;;;18.77;;
68886;SDS011;55925;51.764;6.402;2023-05-14T05:12:37;30.67;;;17.45;;
68886;SDS011;55925;51.764;6.402;2023-05-14T05:15:04;32.50;;;17.13;;
68886;SDS011;55925;51.764;6.402;2023-05-14T05:17:30;30.90;;;17.48;;
68886;SDS011;55925;51.764;6.402;2023-05-14T05:19:56;25.73;;;15.35;;
68886;SDS011;55925;51.764;6.402;2023-05-14T05:22:22;26.27;;;15.77;;
68886;SDS011;55925;51.764;6.402;2023-05-14T05:24:48;28.35;;;15.68;;
68886;SDS011;55925;51.764;6.402;2023-05-14T05:27:14;27.23;;;16.10;;
68886;SDS011;55925;51.764;6.402;2023-05-14T05:29:40;28.40;;;15.10;;
68886;SDS011;55925;51.764;6.402;2023-05-14T05:32:06;25.75;;;16.20;;
68886;SDS011;55925;51.764;6.402;2023-05-14T05:34:33;27.75;;;15.48;;
68886;SDS011;55925;51.764;6.402;2023-05-14T05:36:59;25.88;;;15.32;;
68886;SDS011;55925;51.764;6.402;2023-05-14T05:39:25;28.65;;;16.17;;
68886;SDS011;55925;51.764;6.402;2023-05-14T05:41:52;26.52;;;15.52;;
68886;SDS011;55925;51.764;6.402;2023-05-14T05:44:18;29.92;;;17.92;;
68886;SDS011;55925;51.764;6.402;2023-05-14T05:46:44;28.50;;;16.45;;
68886;SDS011;55925;51.764;6.402;2023-05-14T05:49:10;23.25;;;15.00;;
68886;SDS011;55925;51.764;6.402;2023-05-14T05:51:36;25.55;;;15.55;;
68886;SDS011;55925;51.764;6.402;2023-05-14T05:54:02;23.15;;;15.55;;
68886;SDS011;55925;51.764;6.402;2023-05-14T05:56:28;26.00;;;15.07;;
68886;SDS011;55925;51.764;6.402;2023-05-14T05:58:54;25.83;;;14.85;;
68886;SDS011;55925;51.764;6.402;2023-05-14T06:01:20;25.98;;;14.88;;
68886;SDS011;55925;51.764;6.402;2023-05-14T06:03:46;24.20;;;14.82;;
68886;SDS011;55925;51.764;6.402;2023-05-14T06:06:12;24.23;;;15.23;;
68886;SDS011;55925;51.764;6.402;2023-05-14T06:08:39;27.10;;;15.45;;
68886;SDS011;55925;51.764;6.402;2023-05-14T06:11:06;31.00;;;17.52;;
68886;SDS011;55925;51.764;6.402;2023-05-14T06:13:32;25.90;;;15.82;;
68886;SDS011;55925;51.764;6.402;2023-05-14T06:15:58;24.20;;;15.10;;
68886;SDS011;55925;51.764;6.402;2023-05-14T06:18:24;24.75;;;14.68;;
68886;SDS011;55925;51.764;6.402;2023-05-14T06:20:50;23.02;;;14.23;;
68886;SDS011;55925;51.764;6.402;2023-05-14T06:23:16;25.70;;;15.15;;
68886;SDS011;55925;51.764;6.402;2023-05-14T06:25:42;27.63;;;14.95;;
68886;SDS011;55925;51.764;6.402;2023-05-14T06:28:08;22.95;;;15.02;;
68886;SDS011;55925;51.764;6.402;2023-05-14T06:30:34;27.83;;;14.13;;
68886;SDS011;55925;51.764;6.402;2023-05-14T06:33:00;22.98;;;15.23;;
68886;SDS011;55925;51.764;6.402;2023-05-14T06:35:26;24.45;;;16.00;;
68886;SDS011;55925;51.764;6.402;2023-05-14T06:37:52;22.65;;;14.73;;
68886;SDS011;55925;51.764;6.402;2023-05-14T06:40:18;21.17;;;14.02;;
68886;SDS011;55925;51.764;6.402;2023-05-14T06:42:44;22.65;;;13.43;;
68886;SDS011;55925;51.764;6.402;2023-05-14T06:45:10;22.80;;;14.02;;
68886;SDS011;55925;51.764;6.402;2023-05-14T06:47:36;25.10;;;14.23;;
68886;SDS011;55925;51.764;6.402;2023-05-14T06:50:02;22.02;;;15.23;;
68886;SDS011;55925;51.764;6.402;2023-05-14T06:52:28;23.70;;;15.50;;
68886;SDS011;55925;51.764;6.402;2023-05-14T06:55:03;22.15;;;14.23;;
68886;SDS011;55925;51.764;6.402;2023-05-14T06:57:29;23.58;;;15.73;;
68886;SDS011;55925;51.764;6.402;2023-05-14T07:02:44;21.50;;;14.35;;
68886;SDS011;55925;51.764;6.402;2023-05-14T07:05:10;23.15;;;14.82;;
68886;SDS011;55925;51.764;6.402;2023-05-14T07:07:36;22.17;;;14.25;;
68886;SDS011;55925;51.764;6.402;2023-05-14T07:10:05;22.02;;;15.07;;
68886;SDS011;55925;51.764;6.402;2023-05-14T07:12:32;21.65;;;13.90;;
68886;SDS011;55925;51.764;6.402;2023-05-14T07:14:58;24.35;;;14.88;;
68886;SDS011;55925;51.764;6.402;2023-05-14T07:17:29;22.50;;;13.25;;
68886;SDS011;55925;51.764;6.402;2023-05-14T07:19:58;22.17;;;14.18;;
68886;SDS011;55925;51.764;6.402;2023-05-14T07:22:26;20.38;;;13.57;;
68886;SDS011;55925;51.764;6.402;2023-05-14T07:24:52;22.27;;;13.65;;
68886;SDS011;55925;51.764;6.402;2023-05-14T07:27:18;20.65;;;13.40;;
68886;SDS011;55925;51.764;6.402;2023-05-14T07:29:48;18.23;;;11.75;;
68886;SDS011;55925;51.764;6.402;2023-05-14T07:32:14;18.33;;;11.30;;
68886;SDS011;55925;51.764;6.402;2023-05-14T07:34:56;16.50;;;11.45;;
68886;SDS011;55925;51.764;6.402;2023-05-14T07:37:24;15.68;;;11.80;;
68886;SDS011;55925;51.764;6.402;2023-05-14T07:39:56;16.48;;;10.65;;
68886;SDS011;55925;51.764;6.402;2023-05-14T07:44:58;17.35;;;11.13;;
68886;SDS011;55925;51.764;6.402;2023-05-14T07:47:32;18.95;;;12.30;;
68886;SDS011;55925;51.764;6.402;2023-05-14T07:50:07;17.08;;;10.85;;
68886;SDS011;55925;51.764;6.402;2023-05-14T07:52:49;16.38;;;11.73;;
68886;SDS011;55925;51.764;6.402;2023-05-14T07:55:35;18.80;;;11.60;;
68886;SDS011;55925;51.764;6.402;2023-05-14T07:58:21;14.98;;;10.82;;
68886;SDS011;55925;51.764;6.402;2023-05-14T08:03:51;17.45;;;9.50;;
68886;SDS011;55925;51.764;6.402;2023-05-14T08:06:17;13.80;;;9.48;;
68886;SDS011;55925;51.764;6.402;2023-05-14T08:11:45;15.68;;;10.20;;
68886;SDS011;55925;51.764;6.402;2023-05-14T08:14:11;11.52;;;8.65;;
68886;SDS011;55925;51.764;6.402;2023-05-14T08:16:48;13.70;;;9.55;;
68886;SDS011;55925;51.764;6.402;2023-05-14T08:19:14;14.98;;;10.73;;
68886;SDS011;55925;51.764;6.402;2023-05-14T08:21:46;15.35;;;10.35;;
68886;SDS011;55925;51.764;6.402;2023-05-14T08:24:30;14.55;;;10.40;;
68886;SDS011;55925;51.764;6.402;2023-05-14T08:29:40;14.23;;;10.02;;
68886;SDS011;55925;51.764;6.402;2023-05-14T08:32:09;13.32;;;9.48;;
68886;SDS011;55925;51.764;6.402;2023-05-14T08:34:55;13.23;;;9.48;;
68886;SDS011;55925;51.764;6.402;2023-05-14T08:37:43;14.60;;;9.30;;
68886;SDS011;55925;51.764;6.402;2023-05-14T08:40:34;14.38;;;9.15;;
68886;SDS011;55925;51.764;6.402;2023-05-14T08:43:07;12.80;;;9.93;;
68886;SDS011;55925;51.764;6.402;2023-05-14T08:45:44;15.68;;;9.68;;
68886;SDS011;55925;51.764;6.402;2023-05-14T08:48:21;12.48;;;9.82;;
68886;SDS011;55925;51.764;6.402;2023-05-14T08:50:52;11.88;;;8.55;;
68886;SDS011;55925;51.764;6.402;2023-05-14T08:53:21;13.07;;;7.60;;
68886;SDS011;55925;51.764;6.402;2023-05-14T08:55:50;14.88;;;8.43;;
68886;SDS011;55925;51.764;6.402;2023-05-14T08:58:40;10.70;;;7.55;;
68886;SDS011;55925;51.764;6.402;2023-05-14T09:01:09;10.35;;;7.68;;
68886;SDS011;55925;51.764;6.402;2023-05-14T09:03:35;9.57;;;7.32;;
68886;SDS011;55925;51.764;6.402;2023-05-14T09:06:04;10.68;;;8.05;;
68886;SDS011;55925;51.764;6.402;2023-05-14T09:08:44;11.48;;;8.90;;
68886;SDS011;55925;51.764;6.402;2023-05-14T09:11:11;15.13;;;9.65;;
68886;SDS011;55925;51.764;6.402;2023-05-14T09:13:37;14.77;;;11.15;;
68886;SDS011;55925;51.764;6.402;2023-05-14T09:16:06;13.73;;;10.60;;
68886;SDS011;55925;51.764;6.402;2023-05-14T09:18:34;14.35;;;10.15;;
68886;SDS011;55925;51.764;6.402;2023-05-14T09:21:00;13.25;;;9.77;;
68886;SDS011;55925;51.764;6.402;2023-05-14T09:23:26;15.45;;;9.95;;
68886;SDS011;55925;51.764;6.402;2023-05-14T09:25:56;15.77;;;12.10;;
68886;SDS011;55925;51.764;6.402;2023-05-14T09:28:22;14.65;;;11.25;;
68886;SDS011;55925;51.764;6.402;2023-05-14T09:30:51;18.30;;;12.07;;
68886;SDS011;55925;51.764;6.402;2023-05-14T09:33:27;17.35;;;11.52;;
68886;SDS011;55925;51.764;6.402;2023-05-14T09:35:54;15.38;;;10.93;;
68886;SDS011;55925;51.764;6.402;2023-05-14T09:38:22;13.05;;;9.82;;
68886;SDS011;55925;51.764;6.402;2023-05-14T09:40:48;14.90;;;11.35;;
68886;SDS011;55925;51.764;6.402;2023-05-14T09:43:15;13.82;;;10.20;;
68886;SDS011;55925;51.764;6.402;2023-05-14T09:45:41;13.75;;;10.25;;
68886;SDS011;55925;51.764;6.402;2023-05-14T09:48:07;14.48;;;10.45;;
68886;SDS011;55925;51.764;6.402;2023-05-14T09:50:40;15.23;;;11.00;;
68886;SDS011;55925;51.764;6.402;2023-05-14T09:53:06;14.98;;;9.93;;
68886;SDS011;55925;51.764;6.402;2023-05-14T09:55:32;14.35;;;9.95;;
68886;SDS011;55925;51.764;6.402;2023-05-14T09:57:58;14.60;;;10.07;;
68886;SDS011;55925;51.764;6.402;2023-05-14T10:00:33;14.75;;;10.07;;
68886;SDS011;55925;51.764;6.402;2023-05-14T10:03:03;13.02;;;8.98;;
68886;SDS011;55925;51.764;6.402;2023-05-14T10:05:32;13.52;;;9.90;;
68886;SDS011;55925;51.764;6.402;2023-05-14T10:08:08;12.63;;;9.00;;
68886;SDS011;55925;51.764;6.402;2023-05-14T10:10:35;16.17;;;9.50;;
68886;SDS011;55925;51.764;6.402;2023-05-14T10:13:06;12.95;;;9.57;;
68886;SDS011;55925;51.764;6.402;2023-05-14T10:15:47;12.13;;;8.80;;
68886;SDS011;55925;51.764;6.402;2023-05-14T10:18:17;12.75;;;10.23;;
68886;SDS011;55925;51.764;6.402;2023-05-14T10:20:46;13.85;;;9.02;;
68886;SDS011;55925;51.764;6.402;2023-05-14T10:23:12;12.75;;;9.63;;
68886;SDS011;55925;51.764;6.402;2023-05-14T10:25:39;13.27;;;8.93;;
68886;SDS011;55925;51.764;6.402;2023-05-14T10:28:05;12.00;;;8.57;;
68886;SDS011;55925;51.764;6.402;2023-05-14T10:30:31;11.05;;;8.23;;
68886;SDS011;55925;51.764;6.402;2023-05-14T10:33:07;11.48;;;7.20;;
68886;SDS011;55925;51.764;6.402;2023-05-14T10:35:55;8.80;;;6.90;;
68886;SDS011;55925;51.764;6.402;2023-05-14T10:38:27;10.77;;;7.10;;
68886;SDS011;55925;51.764;6.402;2023-05-14T10:40:57;9.30;;;6.32;;
68886;SDS011;55925;51.764;6.402;2023-05-14T10:43:24;8.43;;;5.65;;
68886;SDS011;55925;51.764;6.402;2023-05-14T10:45:52;10.77;;;6.25;;
68886;SDS011;55925;51.764;6.402;2023-05-14T10:48:18;8.73;;;6.18;;
68886;SDS011;55925;51.764;6.402;2023-05-14T10:50:46;9.32;;;6.40;;
68886;SDS011;55925;51.764;6.402;2023-05-14T10:53:12;7.95;;;5.53;;
68886;SDS011;55925;51.764;6.402;2023-05-14T10:55:38;9.35;;;5.65;;
68886;SDS011;55925;51.764;6.402;2023-05-14T10:58:04;9.68;;;5.00;;
68886;SDS011;55925;51.764;6.402;2023-05-14T11:00:32;7.63;;;4.68;;
68886;SDS011;55925;51.764;6.402;2023-05-14T11:02:58;9.43;;;5.50;;
68886;SDS011;55925;51.764;6.402;2023-05-14T11:05:25;9.38;;;5.13;;
68886;SDS011;55925;51.764;6.402;2023-05-14T11:07:51;10.93;;;5.72;;
68886;SDS011;55925;51.764;6.402;2023-05-14T11:10:20;12.10;;;5.15;;
68886;SDS011;55925;51.764;6.402;2023-05-14T11:12:48;7.47;;;5.10;;
68886;SDS011;55925;51.764;6.402;2023-05-14T11:15:15;8.95;;;5.30;;
68886;SDS011;55925;51.764;6.402;2023-05-14T11:17:42;8.18;;;5.47;;
68886;SDS011;55925;51.764;6.402;2023-05-14T11:20:08;7.22;;;4.82;;
68886;SDS011;55925;51.764;6.402;2023-05-14T11:22:35;6.82;;;4.95;;
68886;SDS011;55925;51.764;6.402;2023-05-14T11:25:02;7.88;;;5.72;;
68886;SDS011;55925;51.764;6.402;2023-05-14T11:27:29;9.80;;;5.00;;
68886;SDS011;55925;51.764;6.402;2023-05-14T11:29:55;8.75;;;6.15;;
68886;SDS011;55925;51.764;6.402;2023-05-14T11:32:22;9.68;;;6.30;;
68886;SDS011;55925;51.764;6.402;2023-05-14T11:34:48;10.20;;;5.85;;
68886;SDS011;55925;51.764;6.402;2023-05-14T11:37:15;9.32;;;6.20;;
68886;SDS011;55925;51.764;6.402;2023-05-14T11:39:48;9.50;;;6.60;;
68886;SDS011;55925;51.764;6.402;2023-05-14T11:42:14;11.48;;;6.82;;
68886;SDS011;55925;51.764;6.402;2023-05-14T11:44:42;9.50;;;6.93;;
68886;SDS011;55925;51.764;6.402;2023-05-14T11:47:08;10.20;;;7.13;;
68886;SDS011;55925;51.764;6.402;2023-05-14T11:49:35;10.02;;;6.95;;
68886;SDS011;55925;51.764;6.402;2023-05-14T11:52:02;8.45;;;5.50;;
68886;SDS011;55925;51.764;6.402;2023-05-14T11:54:29;8.70;;;6.15;;
68886;SDS011;55925;51.764;6.402;2023-05-14T11:56:55;9.07;;;5.68;;
68886;SDS011;55925;51.764;6.402;2023-05-14T11:59:26;8.57;;;5.72;;
68886;SDS011;55925;51.764;6.402;2023-05-14T12:01:52;10.13;;;6.00;;
68886;SDS011;55925;51.764;6.402;2023-05-14T12:04:19;7.40;;;4.82;;
68886;SDS011;55925;51.764;6.402;2023-05-14T12:06:48;7.57;;;4.65;;
68886;SDS011;55925;51.764;6.402;2023-05-14T12:09:15;7.88;;;5.40;;
68886;SDS011;55925;51.764;6.402;2023-05-14T12:11:42;8.07;;;4.90;;
68886;SDS011;55925;51.764;6.402;2023-05-14T12:14:18;8.00;;;4.88;;
68886;SDS011;55925;51.764;6.402;2023-05-14T12:16:45;6.30;;;3.75;;
68886;SDS011;55925;51.764;6.402;2023-05-14T12:19:13;6.20;;;3.97;;
68886;SDS011;55925;51.764;6.402;2023-05-14T12:21:39;6.45;;;3.85;;
68886;SDS011;55925;51.764;6.402;2023-05-14T12:24:09;7.75;;;4.43;;
68886;SDS011;55925;51.764;6.402;2023-05-14T12:26:36;6.53;;;4.38;;
68886;SDS011;55925;51.764;6.402;2023-05-14T12:29:03;8.55;;;3.88;;
68886;SDS011;55925;51.764;6.402;2023-05-14T12:31:31;8.52;;;4.65;;
68886;SDS011;55925;51.764;6.402;2023-05-14T12:34:01;6.80;;;4.32;;
68886;SDS011;55925;51.764;6.402;2023-05-14T12:36:27;5.82;;;3.17;;
68886;SDS011;55925;51.764;6.402;2023-05-14T12:38:58;7.38;;;3.88;;
68886;SDS011;55925;51.764;6.402;2023-05-14T12:41:25;7.28;;;3.78;;
68886;SDS011;55925;51.764;6.402;2023-05-14T12:43:51;6.82;;;3.63;;
68886;SDS011;55925;51.764;6.402;2023-05-14T12:46:17;6.53;;;3.78;;
68886;SDS011;55925;51.764;6.402;2023-05-14T12:48:43;5.47;;;3.70;;
68886;SDS011;55925;51.764;6.402;2023-05-14T12:51:10;8.00;;;3.72;;
68886;SDS011;55925;51.764;6.402;2023-05-14T12:53:36;9.68;;;3.50;;
68886;SDS011;55925;51.764;6.402;2023-05-14T12:56:02;6.70;;;3.08;;
68886;SDS011;55925;51.764;6.402;2023-05-14T12:58:28;6.47;;;3.28;;
68886;SDS011;55925;51.764;6.402;2023-05-14T13:00:54;6.32;;;3.13;;
68886;SDS011;55925;51.764;6.402;2023-05-14T13:03:20;7.70;;;3.30;;
68886;SDS011;55925;51.764;6.402;2023-05-14T13:05:46;7.90;;;3.53;;
68886;SDS011;55925;51.764;6.402;2023-05-14T13:08:12;8.05;;;4.30;;
68886;SDS011;55925;51.764;6.402;2023-05-14T13:10:42;9.15;;;4.00;;
68886;SDS011;55925;51.764;6.402;2023-05-14T13:13:08;9.10;;;4.40;;
68886;SDS011;55925;51.764;6.402;2023-05-14T13:15:34;6.40;;;3.97;;
68886;SDS011;55925;51.764;6.402;2023-05-14T13:18:00;7.30;;;4.30;;
68886;SDS011;55925;51.764;6.402;2023-05-14T13:20:26;6.88;;;4.30;;
68886;SDS011;55925;51.764;6.402;2023-05-14T13:22:54;8.00;;;4.20;;
68886;SDS011;55925;51.764;6.402;2023-05-14T13:25:20;9.25;;;4.25;;
68886;SDS011;55925;51.764;6.402;2023-05-14T13:27:46;7.10;;;3.97;;
68886;SDS011;55925;51.764;6.402;2023-05-14T13:30:15;6.68;;;3.80;;
68886;SDS011;55925;51.764;6.402;2023-05-14T13:32:42;6.82;;;3.58;;
68886;SDS011;55925;51.764;6.402;2023-05-14T13:35:08;6.95;;;4.13;;
68886;SDS011;55925;51.764;6.402;2023-05-14T13:37:34;6.70;;;3.80;;
68886;SDS011;55925;51.764;6.402;2023-05-14T13:40:00;8.38;;;4.10;;
68886;SDS011;55925;51.764;6.402;2023-05-14T13:42:28;7.20;;;4.53;;
68886;SDS011;55925;51.764;6.402;2023-05-14T13:44:58;7.93;;;4.72;;
68886;SDS011;55925;51.764;6.402;2023-05-14T13:47:24;8.20;;;4.65;;
68886;SDS011;55925;51.764;6.402;2023-05-14T13:49:51;6.90;;;4.18;;
68886;SDS011;55925;51.764;6.402;2023-05-14T13:52:17;10.98;;;4.47;;
68886;SDS011;55925;51.764;6.402;2023-05-14T13:54:43;6.93;;;4.00;;
68886;SDS011;55925;51.764;6.402;2023-05-14T13:57:09;9.27;;;4.75;;
68886;SDS011;55925;51.764;6.402;2023-05-14T13:59:35;6.78;;;4.55;;
68886;SDS011;55925;51.764;6.402;2023-05-14T14:02:01;8.50;;;4.90;;
68886;SDS011;55925;51.764;6.402;2023-05-14T14:04:27;9.25;;;5.22;;
68886;SDS011;55925;51.764;6.402;2023-05-14T14:06:54;6.30;;;4.43;;
68886;SDS011;55925;51.764;6.402;2023-05-14T14:09:20;6.53;;;3.90;;
68886;SDS011;55925;51.764;6.402;2023-05-14T14:11:46;6.78;;;4.38;;
68886;SDS011;55925;51.764;6.402;2023-05-14T14:14:12;8.18;;;4.95;;
68886;SDS011;55925;51.764;6.402;2023-05-14T14:16:38;8.27;;;4.80;;
68886;SDS011;55925;51.764;6.402;2023-05-14T14:19:05;9.75;;;4.78;;
68886;SDS011;55925;51.764;6.402;2023-05-14T14:21:31;7.53;;;4.22;;
68886;SDS011;55925;51.764;6.402;2023-05-14T14:23:58;7.60;;;4.18;;
68886;SDS011;55925;51.764;6.402;2023-05-14T14:26:24;6.57;;;4.35;;
68886;SDS011;55925;51.764;6.402;2023-05-14T14:28:51;8.40;;;5.28;;
68886;SDS011;55925;51.764;6.402;2023-05-14T14:31:17;9.30;;;5.80;;
68886;SDS011;55925;51.764;6.402;2023-05-14T14:33:43;8.35;;;4.20;;
68886;SDS011;55925;51.764;6.402;2023-05-14T14:36:09;9.82;;;4.07;;
68886;SDS011;55925;51.764;6.402;2023-05-14T14:38:35;6.70;;;3.80;;
68886;SDS011;55925;51.764;6.402;2023-05-14T14:41:03;6.15;;;3.85;;
68886;SDS011;55925;51.764;6.402;2023-05-14T14:43:31;7.75;;;3.83;;
68886;SDS011;55925;51.764;6.402;2023-05-14T14:45:57;6.90;;;4.30;;
68886;SDS011;55925;51.764;6.402;2023-05-14T14:48:30;8.45;;;4.07;;
68886;SDS011;55925;51.764;6.402;2023-05-14T14:50:58;8.80;;;3.60;;
68886;SDS011;55925;51.764;6.402;2023-05-14T14:53:27;9.02;;;4.10;;